Time;durP1;ratioP1;P1;durP2;ratioP2;P2;SDS_P1;SDS_P2;PMS_P1;PMS_P2;Temp;Humidity;BMP_temperature;BMP_pressure;BME280_temperature;BME280_humidity;BME280_pressure;Samples;Min_cycle;Max_cycle;Signal;HPM_P1;HPM_P2
2023/12/30 00:03:33;;;;;;;8.00;5.20;;;23.60;55.30;;;;;;219195;1283;25336;-50
2023/12/30 00:08:39;;;;;;;6.60;5.50;;;23.40;55.70;;;;;;218748;1280;22593;-50
2023/12/30 00:13:44;;;;;;;6.40;5.60;;;23.30;55.90;;;;;;225390;1286;24278;-59
2023/12/30 00:18:48;;;;;;;5.60;5.00;;;23.50;55.30;;;;;;219204;1276;23924;-59
2023/12/30 00:23:53;;;;;;;8.60;5.50;;;23.40;55.20;;;;;;220327;1283;23302;-59
2023/12/30 00:28:58;;;;;;;6.10;5.20;;;23.40;55.60;;;;;;220173;1286;24221;-60
2023/12/30 00:34:02;;;;;;;6.80;5.20;;;23.60;55.00;;;;;;219194;1264;24233;-60
2023/12/30 00:39:11;;;;;;;5.90;5.00;;;23.50;54.90;;;;;;219358;1283;23166;-60
2023/12/30 00:44:15;;;;;;;6.60;5.00;;;23.50;55.30;;;;;;219611;1286;22662;-59
2023/12/30 00:49:19;;;;;;;5.00;4.50;;;23.40;55.00;;;;;;220032;1287;22528;-59
2023/12/30 00:54:24;;;;;;;5.80;5.20;;;23.30;55.10;;;;;;220368;1280;22730;-60
2023/12/30 00:59:34;;;;;;;6.20;5.40;;;23.40;55.10;;;;;;220132;1285;22565;-60
2023/12/30 01:04:39;;;;;;;5.50;4.60;;;23.70;54.50;;;;;;219945;1286;24234;-61
2023/12/30 01:09:44;;;;;;;6.90;4.90;;;23.80;54.00;;;;;;220059;1266;24228;-59
2023/12/30 01:14:48;;;;;;;5.10;4.40;;;24.00;54.00;;;;;;219525;1276;22962;-61
2023/12/30 01:19:54;;;;;;;4.60;4.20;;;23.90;53.90;;;;;;219651;1289;22566;-60
2023/12/30 01:24:59;;;;;;;4.10;3.80;;;23.90;54.00;;;;;;219475;1292;24491;-60
2023/12/30 01:30:05;;;;;;;5.40;4.30;;;23.80;54.30;;;;;;219242;1286;22751;-60
2023/12/30 01:35:10;;;;;;;5.20;4.30;;;23.70;54.60;;;;;;219337;1289;22784;-60
2023/12/30 01:40:14;;;;;;;4.30;3.90;;;23.60;54.10;;;;;;219374;1291;25489;-59
2023/12/30 01:45:19;;;;;;;4.20;3.80;;;23.50;54.80;;;;;;220269;1286;24254;-59
2023/12/30 01:50:24;;;;;;;4.90;4.20;;;23.50;55.00;;;;;;220736;1276;24272;-60
2023/12/30 01:55:29;;;;;;;3.90;3.60;;;23.70;54.50;;;;;;220577;1280;24309;-61
2023/12/30 02:00:34;;;;;;;4.80;4.40;;;23.90;54.00;;;;;;220524;1280;23352;-59
2023/12/30 02:05:39;;;;;;;3.50;3.20;;;23.70;55.10;;;;;;220215;1283;24089;-57
2023/12/30 02:10:44;;;;;;;4.00;3.60;;;23.60;55.00;;;;;;220282;1283;24234;-58
2023/12/30 02:15:49;;;;;;;4.40;3.90;;;23.60;55.70;;;;;;222429;1287;24223;-58
2023/12/30 02:20:54;;;;;;;3.70;3.40;;;23.50;55.00;;;;;;221094;1287;23489;-59
2023/12/30 02:25:59;;;;;;;4.50;3.80;;;23.50;54.60;;;;;;223212;1277;24262;-59
2023/12/30 02:31:04;;;;;;;4.10;3.70;;;23.60;54.70;;;;;;220673;1283;24198;-60
2023/12/30 02:36:08;;;;;;;3.80;3.30;;;23.80;54.20;;;;;;220415;1283;24219;-60
2023/12/30 02:41:14;;;;;;;3.30;3.00;;;23.90;53.80;;;;;;220129;1276;24221;-61
2023/12/30 02:46:18;;;;;;;3.80;3.30;;;24.10;53.60;;;;;;219230;1273;25510;-60
2023/12/30 02:51:23;;;;;;;3.90;3.60;;;24.00;53.60;;;;;;219987;1273;22551;-60
2023/12/30 02:56:31;;;;;;;4.20;3.80;;;23.90;54.20;;;;;;219563;1282;22559;-59
2023/12/30 03:01:37;;;;;;;3.60;3.30;;;23.70;54.20;;;;;;219345;1276;22992;-59
2023/12/30 03:06:42;;;;;;;3.70;3.30;;;23.60;54.60;;;;;;220582;1283;24228;-59
2023/12/30 03:11:46;;;;;;;3.30;3.10;;;23.70;54.80;;;;;;219043;1282;25313;-59
2023/12/30 03:16:51;;;;;;;3.10;2.90;;;23.80;54.40;;;;;;220948;1282;25628;-59
2023/12/30 03:21:58;;;;;;;3.90;3.50;;;23.80;55.20;;;;;;219203;1275;22562;-59
2023/12/30 03:27:03;;;;;;;3.10;2.80;;;23.80;54.80;;;;;;221589;1273;22565;-59
2023/12/30 03:32:07;;;;;;;3.30;3.10;;;23.70;54.20;;;;;;225349;1277;24631;-57
2023/12/30 03:37:11;;;;;;;3.00;2.80;;;23.80;54.40;;;;;;219253;1282;23618;-60
2023/12/30 03:42:16;;;;;;;3.40;2.90;;;23.80;54.40;;;;;;219037;1284;22539;-59
2023/12/30 03:47:20;;;;;;;3.30;3.00;;;23.60;54.10;;;;;;219058;1283;22807;-61
2023/12/30 03:52:25;;;;;;;4.10;3.30;;;23.50;54.80;;;;;;218941;1282;22559;-59
2023/12/30 03:57:30;;;;;;;3.20;2.90;;;23.30;55.10;;;;;;219030;1282;24244;-61
2023/12/30 04:02:34;;;;;;;2.90;2.70;;;23.40;55.20;;;;;;218923;1282;22536;-60
2023/12/30 04:07:39;;;;;;;2.30;2.10;;;23.60;54.40;;;;;;218681;1279;24224;-60
2023/12/30 04:12:44;;;;;;;3.10;2.80;;;23.90;54.10;;;;;;219499;1284;22580;-60
2023/12/30 04:17:49;;;;;;;3.20;2.90;;;24.00;53.70;;;;;;219306;1279;22651;-59
2023/12/30 04:22:54;;;;;;;2.90;2.70;;;24.10;53.50;;;;;;219297;1281;24376;-61
2023/12/30 04:27:59;;;;;;;3.10;2.80;;;24.00;53.70;;;;;;219183;1280;24258;-60
2023/12/30 04:33:04;;;;;;;2.80;2.60;;;23.80;54.10;;;;;;219327;1286;22669;-60
2023/12/30 04:38:11;;;;;;;2.80;2.60;;;23.70;54.50;;;;;;219333;1276;26057;-59
2023/12/30 04:43:15;;;;;;;2.90;2.70;;;23.60;54.70;;;;;;219377;1280;24266;-60
2023/12/30 04:48:20;;;;;;;2.60;2.40;;;23.60;55.40;;;;;;219165;1283;22544;-59
2023/12/30 04:53:25;;;;;;;2.80;2.30;;;23.60;54.70;;;;;;219373;1285;22994;-60
2023/12/30 04:58:30;;;;;;;2.70;2.50;;;23.70;54.70;;;;;;219352;1280;23118;-59
2023/12/30 05:03:36;;;;;;;2.80;2.60;;;23.90;54.00;;;;;;219403;1285;24103;-60
2023/12/30 05:08:41;;;;;;;2.60;2.40;;;23.70;54.00;;;;;;219462;1280;25124;-60
2023/12/30 05:13:46;;;;;;;2.10;2.00;;;23.50;54.50;;;;;;219417;1276;22562;-60
2023/12/30 05:18:50;;;;;;;3.40;2.30;;;23.40;54.70;;;;;;219553;1288;24445;-60
2023/12/30 05:23:56;;;;;;;2.20;2.10;;;23.40;54.60;;;;;;219217;1290;22569;-59
2023/12/30 05:29:00;;;;;;;2.20;2.00;;;23.30;54.30;;;;;;220234;1289;26052;-59
2023/12/30 05:34:06;;;;;;;2.70;2.50;;;23.30;54.60;;;;;;219080;1292;23866;-59
2023/12/30 05:39:13;;;;;;;2.30;2.10;;;23.30;54.70;;;;;;219641;1282;22553;-59
2023/12/30 05:44:19;;;;;;;2.90;1.80;;;23.20;55.30;;;;;;219628;1286;22565;-59
2023/12/30 05:49:23;;;;;;;2.50;2.30;;;23.10;55.00;;;;;;219167;1283;22666;-59
2023/12/30 05:54:28;;;;;;;2.00;1.90;;;23.10;55.00;;;;;;219299;1280;22943;-59
2023/12/30 05:59:32;;;;;;;2.30;2.20;;;23.00;55.40;;;;;;219222;1283;22559;-59
2023/12/30 06:04:41;;;;;;;2.10;1.90;;;23.00;55.30;;;;;;219107;1284;25517;-59
2023/12/30 06:09:46;;;;;;;2.40;2.30;;;23.00;55.40;;;;;;219187;1283;25317;-60
2023/12/30 06:14:51;;;;;;;2.10;1.90;;;22.90;56.30;;;;;;219373;1276;25373;-60
2023/12/30 06:19:56;;;;;;;1.90;1.80;;;22.80;55.60;;;;;;219153;1288;24233;-59
2023/12/30 06:25:00;;;;;;;2.00;1.90;;;23.00;55.60;;;;;;218749;1283;487284;-59
2023/12/30 06:30:06;;;;;;;1.80;1.70;;;23.30;55.20;;;;;;219627;1280;25077;-60
2023/12/30 06:35:11;;;;;;;2.00;1.90;;;23.70;54.10;;;;;;218733;1273;24234;-59
2023/12/30 06:40:25;;;;;;;2.00;1.90;;;23.90;53.60;;;;;;224801;1283;24393;-59
2023/12/30 06:45:29;;;;;;;2.40;2.10;;;24.00;53.20;;;;;;220789;1286;24262;-59
2023/12/30 06:50:34;;;;;;;2.30;2.10;;;23.90;53.20;;;;;;219590;1283;24211;-60
2023/12/30 06:55:38;;;;;;;1.60;1.50;;;23.80;53.40;;;;;;218935;1288;24250;-60
2023/12/30 07:00:51;;;;;;;1.60;1.50;;;23.60;54.20;;;;;;219344;1287;25420;-59
2023/12/30 07:05:55;;;;;;;1.60;1.50;;;23.60;54.10;;;;;;218558;1285;24236;-61
2023/12/30 07:11:00;;;;;;;1.90;1.70;;;23.40;55.00;;;;;;218425;1283;22612;-62
2023/12/30 07:16:05;;;;;;;1.70;1.60;;;23.40;54.60;;;;;;218853;1286;24415;-60
2023/12/30 07:21:10;;;;;;;1.70;1.60;;;23.40;54.60;;;;;;218467;1282;22949;-60
2023/12/30 07:26:14;;;;;;;2.10;1.80;;;23.50;54.20;;;;;;218717;1289;22543;-61
2023/12/30 07:31:19;;;;;;;1.80;1.70;;;23.40;54.30;;;;;;218929;1290;22566;-61
2023/12/30 07:36:26;;;;;;;2.50;1.70;;;23.30;54.50;;;;;;218931;1283;24282;-61
2023/12/30 07:41:30;;;;;;;1.30;1.20;;;23.40;54.60;;;;;;219325;1280;22630;-60
2023/12/30 07:46:35;;;;;;;1.50;1.40;;;23.30;54.60;;;;;;219290;1280;22536;-60
2023/12/30 07:51:40;;;;;;;1.60;1.40;;;23.10;54.60;;;;;;219313;1283;22664;-61
2023/12/30 07:56:44;;;;;;;1.50;1.40;;;23.00;55.30;;;;;;219214;1284;22563;-60
2023/12/30 08:01:48;;;;;;;1.50;1.40;;;23.00;55.40;;;;;;219050;1288;22533;-60
2023/12/30 08:06:53;;;;;;;1.50;1.40;;;23.00;55.40;;;;;;219087;1285;22539;-59
2023/12/30 08:11:58;;;;;;;1.70;1.60;;;23.00;55.40;;;;;;219075;1286;24272;-57
2023/12/30 08:17:06;;;;;;;1.40;1.30;;;22.80;55.40;;;;;;219475;1270;25348;-60
2023/12/30 08:22:13;;;;;;;1.30;1.20;;;23.00;54.90;;;;;;218540;1270;22668;-60
2023/12/30 08:27:18;;;;;;;3.40;2.00;;;23.30;55.20;;;;;;218761;1282;24258;-60
2023/12/30 08:32:22;;;;;;;2.90;1.30;;;23.60;54.00;;;;;;219203;1270;22564;-59
2023/12/30 08:37:27;;;;;;;2.00;1.30;;;23.90;53.50;;;;;;218741;1286;22544;-59
2023/12/30 08:42:34;;;;;;;2.50;1.10;;;23.90;53.80;;;;;;218746;1289;25447;-59
2023/12/30 08:47:39;;;;;;;1.90;1.40;;;23.80;53.70;;;;;;219284;1283;22919;-59
2023/12/30 08:52:44;;;;;;;1.30;1.20;;;23.70;53.90;;;;;;219068;1283;22656;-61
2023/12/30 08:57:49;;;;;;;1.30;1.20;;;23.70;54.10;;;;;;219109;1286;23974;-60
2023/12/30 09:02:55;;;;;;;1.20;1.10;;;23.60;54.10;;;;;;219301;1271;22735;-60
2023/12/30 09:08:02;;;;;;;1.20;1.20;;;23.50;54.20;;;;;;219195;1283;26752;-59
2023/12/30 09:13:08;;;;;;;1.70;1.30;;;23.30;54.60;;;;;;219161;1283;24221;-60
2023/12/30 09:18:13;;;;;;;1.20;1.10;;;23.30;54.70;;;;;;218966;1273;22540;-60
2023/12/30 09:23:18;;;;;;;1.10;0.90;;;23.20;55.10;;;;;;219017;1266;22569;-59
2023/12/30 09:28:23;;;;;;;1.20;1.10;;;23.20;55.50;;;;;;219129;1283;22611;-59
2023/12/30 09:33:27;;;;;;;2.90;1.30;;;23.10;55.50;;;;;;219405;1273;25245;-57
2023/12/30 09:38:31;;;;;;;5.80;2.20;;;23.10;55.60;;;;;;219096;1273;24405;-55
2023/12/30 09:43:37;;;;;;;4.30;1.10;;;23.30;56.40;;;;;;218816;1281;24305;-56
2023/12/30 09:48:43;;;;;;;4.30;1.10;;;23.30;55.10;;;;;;218667;1283;22588;-59
2023/12/30 09:53:49;;;;;;;2.60;1.10;;;23.30;56.00;;;;;;219012;1288;22768;-58
2023/12/30 09:58:54;;;;;;;2.40;1.10;;;23.30;55.80;;;;;;219417;1286;22563;-58
2023/12/30 10:03:58;;;;;;;5.40;1.30;;;23.20;57.00;;;;;;220709;1286;24352;-56
2023/12/30 10:09:04;;;;;;;5.00;1.00;;;23.30;58.60;;;;;;220567;1285;24240;-56
2023/12/30 10:14:08;;;;;;;1.40;1.30;;;23.20;57.70;;;;;;220319;1281;22531;-56
2023/12/30 10:19:13;;;;;;;2.30;1.30;;;23.10;58.10;;;;;;220179;1283;22542;-58
2023/12/30 10:24:20;;;;;;;3.00;1.30;;;23.10;58.00;;;;;;219445;1280;24218;-58
2023/12/30 10:29:25;;;;;;;6.50;1.40;;;23.00;57.90;;;;;;218895;1279;23162;-57
2023/12/30 10:34:34;;;;;;;3.30;1.10;;;23.00;57.80;;;;;;218995;1283;22832;-59
2023/12/30 10:39:41;;;;;;;4.20;1.30;;;23.00;58.10;;;;;;218972;1267;25276;-58
2023/12/30 10:44:46;;;;;;;4.10;1.30;;;22.90;57.70;;;;;;219118;1283;22697;-54
2023/12/30 10:49:54;;;;;;;4.10;1.30;;;22.90;57.90;;;;;;219059;1285;24432;-58
2023/12/30 10:55:10;;;;;;;2.20;0.70;;;22.90;57.60;;;;;;218907;1274;24168;-55
2023/12/30 11:00:20;;;;;;;4.40;1.20;;;22.90;57.20;;;;;;220777;1283;22652;-56
2023/12/30 11:05:32;;;;;;;2.00;1.40;;;22.80;57.60;;;;;;219509;1283;22655;-58
2023/12/30 11:10:38;;;;;;;28.20;4.50;;;22.80;57.70;;;;;;219290;1282;22558;-56
2023/12/30 11:15:42;;;;;;;5.90;1.50;;;22.80;58.00;;;;;;218930;1280;25021;-54
2023/12/30 11:20:48;;;;;;;2.30;1.10;;;22.90;57.90;;;;;;218408;1286;22559;-55
2023/12/30 11:25:52;;;;;;;2.70;1.10;;;22.80;57.60;;;;;;219227;1283;24218;-60
2023/12/30 11:31:00;;;;;;;5.00;1.10;;;22.80;57.70;;;;;;219231;1283;23892;-53
2023/12/30 11:36:06;;;;;;;1.60;0.90;;;22.80;57.70;;;;;;218952;1285;22740;-54
2023/12/30 11:41:11;;;;;;;2.20;0.80;;;22.80;58.00;;;;;;218983;1287;24337;-55
2023/12/30 11:46:17;;;;;;;5.50;0.80;;;22.80;57.70;;;;;;219172;1287;23273;-55
2023/12/30 11:51:23;;;;;;;2.70;1.30;;;22.80;58.20;;;;;;218747;1283;24263;-57
2023/12/30 11:56:27;;;;;;;2.20;1.10;;;22.70;57.60;;;;;;219047;1285;25464;-55
2023/12/30 12:01:32;;;;;;;2.80;1.10;;;22.60;57.80;;;;;;219167;1277;22535;-58
2023/12/30 12:06:37;;;;;;;5.10;1.10;;;22.80;57.60;;;;;;218756;1280;22781;-59
2023/12/30 12:11:43;;;;;;;2.80;1.00;;;22.70;57.60;;;;;;219266;1280;26074;-57
2023/12/30 12:16:47;;;;;;;5.30;1.70;;;22.70;57.50;;;;;;218684;1274;24409;-49
2023/12/30 12:21:58;;;;;;;2.20;1.40;;;22.70;57.60;;;;;;219444;1281;22635;-52
2023/12/30 12:27:05;;;;;;;4.10;1.70;;;22.90;56.80;;;;;;219773;1280;22527;-56
2023/12/30 12:32:20;;;;;;;3.50;1.20;;;22.90;56.60;;;;;;226825;1280;25367;-54
2023/12/30 12:37:28;;;;;;;5.90;1.40;;;22.80;57.20;;;;;;221325;1283;22925;-47
2023/12/30 12:42:32;;;;;;;2.20;1.70;;;23.20;57.80;;;;;;219805;1283;22565;-55
2023/12/30 12:47:36;;;;;;;1.70;1.50;;;23.50;55.50;;;;;;218944;1287;22546;-51
2023/12/30 12:52:42;;;;;;;4.00;1.40;;;23.60;54.70;;;;;;218755;1283;24224;-54
2023/12/30 12:57:46;;;;;;;1.50;1.20;;;23.70;54.60;;;;;;220452;1284;22546;-52
2023/12/30 13:02:51;;;;;;;1.50;1.20;;;23.80;54.60;;;;;;219065;1280;22533;-54
2023/12/30 13:07:57;;;;;;;3.20;1.30;;;23.70;54.60;;;;;;219092;1286;25403;-54
2023/12/30 13:13:03;;;;;;;2.70;1.50;;;23.60;55.60;;;;;;219053;1283;22585;-54
2023/12/30 13:18:12;;;;;;;3.90;1.30;;;23.50;54.70;;;;;;219303;1273;23687;-53
2023/12/30 13:23:17;;;;;;;3.00;1.70;;;23.50;55.20;;;;;;218967;1283;24622;-53
2023/12/30 13:28:22;;;;;;;3.50;1.50;;;23.40;55.10;;;;;;219818;1283;24277;-54
2023/12/30 13:33:26;;;;;;;3.60;1.40;;;23.40;55.00;;;;;;218909;1283;22550;-51
2023/12/30 13:38:36;;;;;;;2.90;1.60;;;23.40;55.10;;;;;;219187;1285;22817;-54
2023/12/30 13:43:43;;;;;;;2.10;1.50;;;23.40;55.00;;;;;;219235;1288;23479;-56
2023/12/30 13:54:22;;;;;;;2.00;1.50;;;23.20;54.90;;;;;;218735;1280;24272;-50
2023/12/30 13:59:28;;;;;;;2.50;1.50;;;23.30;55.00;;;;;;219044;1283;25500;-53
2023/12/30 14:04:33;;;;;;;5.10;1.60;;;23.20;55.00;;;;;;218978;1280;24378;-54
2023/12/30 14:09:50;;;;;;;1.60;1.30;;;23.10;55.10;;;;;;222804;1279;24212;-52
2023/12/30 14:14:55;;;;;;;1.70;1.60;;;23.10;55.40;;;;;;219104;1285;22565;-52
2023/12/30 14:20:04;;;;;;;2.30;1.50;;;23.00;55.80;;;;;;219297;1288;25412;-52
2023/12/30 14:25:11;;;;;;;2.70;1.70;;;22.90;55.60;;;;;;218939;1273;25140;-51
2023/12/30 14:30:16;;;;;;;2.60;1.90;;;22.90;55.70;;;;;;219378;1283;22584;-52
2023/12/30 14:35:21;;;;;;;3.60;1.80;;;22.90;57.00;;;;;;219212;1287;25869;-52
2023/12/30 14:40:26;;;;;;;3.50;1.70;;;23.00;55.70;;;;;;219197;1283;22547;-50
2023/12/30 14:45:31;;;;;;;4.30;1.80;;;23.00;55.60;;;;;;219153;1287;22921;-51
2023/12/30 14:50:35;;;;;;;4.30;1.60;;;22.90;55.80;;;;;;219043;1283;22756;-51
2023/12/30 14:55:40;;;;;;;4.40;1.70;;;22.90;55.80;;;;;;218889;1274;22722;-51
2023/12/30 15:00:46;;;;;;;11.90;2.40;;;22.80;55.50;;;;;;219078;1287;22643;-53
2023/12/30 15:05:51;;;;;;;2.50;1.80;;;22.80;55.30;;;;;;219198;1287;23769;-54
2023/12/30 15:10:56;;;;;;;3.50;2.10;;;22.80;55.40;;;;;;219103;1287;22552;-52
2023/12/30 15:16:02;;;;;;;4.30;1.80;;;22.80;55.80;;;;;;218970;1286;24452;-48
2023/12/30 15:21:07;;;;;;;3.10;1.50;;;22.70;55.50;;;;;;218847;1285;25255;-50
2023/12/30 15:26:12;;;;;;;2.50;1.50;;;22.80;55.70;;;;;;219033;1277;25504;-52
2023/12/30 15:31:17;;;;;;;5.30;1.60;;;22.70;55.50;;;;;;218839;1285;25456;-54
2023/12/30 15:36:22;;;;;;;7.80;1.90;;;22.70;56.00;;;;;;218895;1280;24222;-51
2023/12/30 15:41:26;;;;;;;6.40;3.50;;;23.10;55.40;;;;;;218988;1283;25439;-52
2023/12/30 15:46:33;;;;;;;2.20;1.60;;;23.60;54.90;;;;;;219049;1280;24290;-49
2023/12/30 15:51:38;;;;;;;3.80;1.70;;;23.90;54.60;;;;;;219121;1286;22553;-50
2023/12/30 15:56:43;;;;;;;5.50;1.90;;;24.00;53.80;;;;;;218847;1284;22563;-52
2023/12/30 16:01:47;;;;;;;4.20;1.70;;;24.00;53.30;;;;;;218689;1287;24388;-49
2023/12/30 16:06:52;;;;;;;6.20;1.80;;;23.90;52.90;;;;;;218995;1277;22557;-50
2023/12/30 16:11:57;;;;;;;3.80;2.00;;;23.80;53.00;;;;;;219154;1286;24375;-52
2023/12/30 16:17:01;;;;;;;8.70;2.30;;;23.70;52.40;;;;;;218931;1284;22546;-53
2023/12/30 16:22:06;;;;;;;4.80;2.30;;;23.60;53.00;;;;;;218862;1288;24222;-50
2023/12/30 16:27:11;;;;;;;4.40;2.80;;;23.40;53.50;;;;;;219040;1283;25512;-54
2023/12/30 16:32:16;;;;;;;8.00;2.90;;;23.20;55.40;;;;;;219080;1286;25595;-52
2023/12/30 16:37:22;;;;;;;2.70;2.50;;;23.10;56.20;;;;;;219086;1282;25367;-52
2023/12/30 16:42:29;;;;;;;6.30;2.70;;;23.10;56.60;;;;;;218846;1286;25246;-50
2023/12/30 16:47:36;;;;;;;3.50;2.50;;;23.10;56.80;;;;;;218897;1288;25167;-52
2023/12/30 16:52:42;;;;;;;6.20;2.30;;;23.10;57.00;;;;;;219167;1279;23945;-46
2023/12/30 16:57:47;;;;;;;8.20;3.80;;;23.10;57.20;;;;;;218849;1283;22684;-48
2023/12/30 17:02:52;;;;;;;;;;;23.00;57.70;;;;;;218925;1286;24289;-50
2023/12/30 17:07:57;;;;;;;;;;;23.00;58.20;;;;;;218891;1288;22615;-50
2023/12/30 17:13:02;;;;;;;;;;;23.00;58.80;;;;;;218798;1288;25364;-51
2023/12/30 17:18:06;;;;;;;;;;;23.00;59.00;;;;;;218991;1282;24366;-49
2023/12/30 17:23:11;;;;;;;;;;;23.00;59.10;;;;;;218758;1273;24293;-55
2023/12/30 17:28:17;;;;;;;;;;;23.00;59.30;;;;;;219242;1283;24228;-52
2023/12/30 17:33:26;;;;;;;;;;;22.90;59.70;;;;;;219103;1282;25236;-50
2023/12/30 17:38:31;;;;;;;;;;;22.80;60.10;;;;;;219107;1277;23382;-50
2023/12/30 17:43:36;;;;;;;;;;;22.70;60.20;;;;;;218828;1283;22668;-52
2023/12/30 17:48:40;;;;;;;;;;;22.80;60.30;;;;;;221346;1285;22553;-48
2023/12/30 17:53:45;;;;;;;;;;;23.00;59.90;;;;;;218837;1286;24268;-49
2023/12/30 17:58:51;;;;;;;;;;;22.90;60.20;;;;;;219186;1288;22527;-51
2023/12/30 18:03:57;;;;;;;;;;;22.90;60.50;;;;;;219127;1288;22524;-54
2023/12/30 18:09:01;;;;;;;;;;;23.00;60.70;;;;;;218876;1273;25391;-52
2023/12/30 18:14:10;;;;;;;;;;;23.10;59.70;;;;;;219364;1286;24293;-50
2023/12/30 18:19:16;;;;;;;;;;;23.20;59.00;;;;;;219983;1267;23936;-55
2023/12/30 18:24:20;;;;;;;;;;;23.00;59.40;;;;;;218812;1283;259166;-54
2023/12/30 18:29:26;;;;;;;;;;;23.00;60.00;;;;;;219304;1288;24311;-53
2023/12/30 18:34:32;;;;;;;;;;;23.00;61.10;;;;;;219327;1288;22531;-55
2023/12/30 18:39:38;;;;;;;;;;;23.00;62.20;;;;;;219138;1284;22562;-51
2023/12/30 18:44:44;;;;;;;;;;;23.00;61.90;;;;;;219228;1285;23942;-53
2023/12/30 18:49:52;;;;;;;;;;;23.10;61.30;;;;;;219214;1287;22524;-56
2023/12/30 18:54:59;;;;;;;;;;;23.00;61.60;;;;;;218967;1287;24349;-52
2023/12/30 19:00:05;;;;;;;;;;;23.00;60.60;;;;;;219137;1285;22603;-56
2023/12/30 19:05:10;;;;;;;;;;;23.00;60.10;;;;;;219333;1285;23557;-54
2023/12/30 19:10:19;;;;;;;;;;;22.80;61.40;;;;;;219240;1283;25417;-51
2023/12/30 19:15:26;;;;;;;;;;;22.80;64.40;;;;;;219171;1274;22520;-51
2023/12/30 19:20:31;;;;;;;;;;;23.40;61.90;;;;;;219241;1287;22669;-52
2023/12/30 19:25:41;;;;;;;;;;;23.80;59.50;;;;;;219084;1274;22541;-52
2023/12/30 19:30:51;;;;;;;;;;;24.10;58.50;;;;;;218363;1292;22601;-50
2023/12/30 19:36:00;;;;;;;;;;;24.10;58.00;;;;;;218003;1290;22528;-51
2023/12/30 19:41:09;;;;;;;;;;;24.10;57.80;;;;;;217364;1288;24238;-50
2023/12/30 19:46:17;;;;;;;;;;;24.00;57.80;;;;;;217055;1292;22543;-50
2023/12/30 19:51:26;;;;;;;;;;;23.90;58.40;;;;;;217252;1286;22656;-50
2023/12/30 19:56:34;;;;;;;;;;;23.80;58.60;;;;;;219435;1288;23944;-52
2023/12/30 20:01:44;;;;;;;;;;;23.80;58.40;;;;;;217856;1293;24193;-51
2023/12/30 20:06:53;;;;;;;;;;;23.70;58.50;;;;;;217884;1293;24317;-50
2023/12/30 20:12:00;;;;;;;;;;;23.50;58.80;;;;;;218574;1286;24396;-52
2023/12/30 20:17:08;;;;;;;;;;;23.30;59.70;;;;;;219403;1283;23485;-51
2023/12/30 20:22:19;;;;;;;;;;;23.30;60.20;;;;;;219298;1283;23887;-51
2023/12/30 20:27:28;;;;;;;;;;;23.10;60.00;;;;;;218973;1283;24218;-52
2023/12/30 20:32:36;;;;;;;;;;;23.00;61.40;;;;;;219582;1273;25235;-52
2023/12/30 20:37:44;;;;;;;;;;;23.20;61.80;;;;;;219403;1283;25316;-52
2023/12/30 20:42:51;;;;;;;;;;;23.30;61.40;;;;;;219240;1280;24433;-51
2023/12/30 20:47:58;;;;;;;;;;;23.10;62.20;;;;;;219312;1283;23778;-52
2023/12/30 20:53:07;;;;;;;;;;;23.10;62.20;;;;;;219207;1282;22678;-52
2023/12/30 20:58:15;;;;;;;;;;;23.00;62.40;;;;;;219192;1286;22564;-53
2023/12/30 21:03:30;;;;;;;;;;;22.90;62.60;;;;;;219130;1286;22523;-52
2023/12/30 21:08:37;;;;;;;;;;;22.70;62.60;;;;;;218951;1267;26284;-47
2023/12/30 21:13:46;;;;;;;;;;;22.60;62.70;;;;;;219187;1283;22516;-51
2023/12/30 21:18:54;;;;;;;;;;;23.00;62.70;;;;;;219406;1287;24397;-53
2023/12/30 21:24:04;;;;;;;;;;;23.60;60.50;;;;;;219359;1283;23887;-49
2023/12/30 21:29:10;;;;;;;;;;;24.00;59.50;;;;;;219170;1283;22863;-51
2023/12/30 21:34:22;;;;;;;;;;;24.20;59.10;;;;;;219153;1286;24394;-51
2023/12/30 21:39:32;;;;;;;;;;;24.40;58.50;;;;;;219113;1282;22889;-51
2023/12/30 21:44:40;;;;;;;;;;;24.20;58.40;;;;;;219149;1286;23148;-52
2023/12/30 21:49:48;;;;;;;;;;;24.20;58.70;;;;;;219248;1282;24282;-52
2023/12/30 21:54:55;;;;;;;;;;;24.00;59.00;;;;;;219140;1288;22533;-53
2023/12/30 22:00:04;;;;;;;;;;;23.90;59.60;;;;;;218951;1272;24289;-50
2023/12/30 22:05:13;;;;;;;;;;;23.70;59.90;;;;;;219184;1287;22522;-51
2023/12/30 22:10:20;;;;;;;;;;;23.70;60.90;;;;;;218999;1283;25408;-52
2023/12/30 22:15:28;;;;;;;;;;;23.60;60.90;;;;;;219270;1283;22532;-46
2023/12/30 22:20:32;;;;;;;;;;;23.60;60.90;;;;;;218804;1283;23817;-45
2023/12/30 22:25:38;;;;;;;;;;;23.70;60.40;;;;;;219382;1282;24224;-47
2023/12/30 22:30:42;;;;;;;;;;;23.70;60.10;;;;;;219362;1282;24219;-46
2023/12/30 22:35:48;;;;;;;;;;;23.50;60.60;;;;;;219195;1273;24459;-45
2023/12/30 22:40:52;;;;;;;;;;;23.40;60.90;;;;;;218973;1280;25336;-47
2023/12/30 22:45:57;;;;;;;;;;;23.60;60.50;;;;;;219089;1273;24350;-48
2023/12/30 22:51:02;;;;;;;;;;;23.90;59.50;;;;;;219132;1276;25235;-48
2023/12/30 22:56:06;;;;;;;;;;;24.20;58.90;;;;;;218924;1288;25265;-49
2023/12/30 23:01:13;;;;;;;;;;;24.30;58.70;;;;;;219091;1280;26627;-46
2023/12/30 23:06:18;;;;;;;;;;;24.30;58.40;;;;;;219071;1283;22514;-47
2023/12/30 23:11:22;;;;;;;;;;;24.20;58.60;;;;;;219056;1282;22715;-47
2023/12/30 23:16:27;;;;;;;;;;;24.10;59.10;;;;;;219131;1286;24294;-50
2023/12/30 23:21:32;;;;;;;;;;;23.90;59.60;;;;;;218990;1270;24593;-49
2023/12/30 23:26:37;;;;;;;;;;;23.80;60.00;;;;;;218993;1280;24211;-48
2023/12/30 23:31:41;;;;;;;;;;;23.70;60.20;;;;;;219150;1283;22530;-49
2023/12/30 23:36:46;;;;;;;;;;;23.60;60.60;;;;;;219013;1286;22661;-47
2023/12/30 23:41:51;;;;;;;;;;;23.70;60.60;;;;;;219402;1280;22557;-47
2023/12/30 23:46:55;;;;;;;;;;;23.90;59.90;;;;;;219186;1274;22695;-48
2023/12/30 23:52:03;;;;;;;;;;;23.80;59.90;;;;;;219417;1280;23948;-46
2023/12/30 23:57:07;;;;;;;;;;;23.60;60.10;;;;;;219120;1281;25517;-46
